createdAt,value
2022-10-11T19:03:20.495Z,28.86
2022-10-11T19:05:47.942Z,29.24
2022-10-11T19:08:15.093Z,29.43
2022-10-11T19:10:42.346Z,29.60
2022-10-11T19:13:09.499Z,29.81
2022-10-11T19:15:36.645Z,30.00
2022-10-11T19:18:03.901Z,30.11
2022-10-11T19:20:31.049Z,30.25
2022-10-11T19:22:58.402Z,30.35
2022-10-11T19:25:25.655Z,30.44
2022-10-11T19:27:52.907Z,30.54
2022-10-11T19:30:20.163Z,30.61
2022-10-11T19:32:47.414Z,30.63
2022-10-11T19:35:19.088Z,30.91
2022-10-11T19:37:47.141Z,31.01
2022-10-11T19:40:14.394Z,31.02
2022-10-11T19:42:41.551Z,30.85
2022-10-11T19:45:09.411Z,30.90
2022-10-11T19:47:36.562Z,31.01
2022-10-11T19:50:04.427Z,31.01
2022-10-11T19:52:31.747Z,30.96
2022-10-11T19:54:59.342Z,30.94
2022-10-11T19:57:26.494Z,30.92
2022-10-11T19:59:53.746Z,30.87
2022-10-11T20:02:20.895Z,30.81
2022-10-11T20:04:53.146Z,30.75
2022-10-11T20:07:20.933Z,30.79
2022-10-11T20:09:48.082Z,30.83
2022-10-11T20:12:15.231Z,30.86
2022-10-11T20:14:42.384Z,31.06
2022-10-11T20:17:09.537Z,31.11
2022-10-11T20:19:36.788Z,31.19
2022-10-11T20:22:04.037Z,31.14
2022-10-11T20:24:33.985Z,31.11
2022-10-11T20:27:05.108Z,31.11
2022-10-11T20:29:32.356Z,30.97
2022-10-11T20:31:59.599Z,30.94
2022-10-11T20:34:27.878Z,30.96
2022-10-11T20:36:55.029Z,31.01
2022-10-11T20:39:22.397Z,31.09
2022-10-11T20:41:49.636Z,31.09
2022-10-11T20:44:18.018Z,30.92
2022-10-11T20:46:45.165Z,30.77
2022-10-11T20:49:12.417Z,30.60
2022-10-11T20:51:41.630Z,30.54
2022-10-11T20:54:09.279Z,30.54
2022-10-11T20:56:36.431Z,30.50
2022-10-11T20:59:03.748Z,30.69
2022-10-11T21:01:38.889Z,30.78
2022-10-11T21:04:06.890Z,30.72
2022-10-11T21:06:34.040Z,30.68
2022-10-11T21:09:02.100Z,30.66
2022-10-11T21:11:31.379Z,30.63
2022-10-11T21:14:00.362Z,30.65
2022-10-11T21:16:27.790Z,30.63
2022-10-11T21:18:55.964Z,30.48
2022-10-11T21:21:25.876Z,30.44
2022-10-11T21:24:11.254Z,30.47
2022-10-11T21:26:38.403Z,30.52
2022-10-11T21:29:05.657Z,30.63
2022-10-11T21:31:34.258Z,30.56
2022-10-11T21:34:02.555Z,30.53
2022-10-11T21:36:29.760Z,30.54
2022-10-11T21:38:56.910Z,30.46
2022-10-11T21:41:25.802Z,30.57
2022-10-11T21:43:53.054Z,30.62
2022-10-11T21:46:21.125Z,30.57
2022-10-11T21:48:50.115Z,30.54
2022-10-11T21:51:27.816Z,30.51
2022-10-11T21:53:56.401Z,30.46
2022-10-11T21:56:23.979Z,30.46
2022-10-11T21:58:51.418Z,30.44
2022-10-11T22:01:19.036Z,30.39
2022-10-11T22:03:46.333Z,30.37
2022-10-11T22:06:13.585Z,30.35
2022-10-11T22:08:41.041Z,30.35
2022-10-11T22:11:08.807Z,30.38
2022-10-11T22:13:36.041Z,30.38
2022-10-11T22:16:06.981Z,30.41
2022-10-11T22:18:34.206Z,30.37
2022-10-11T22:21:16.540Z,30.30
2022-10-11T22:23:45.734Z,30.31
2022-10-11T22:26:14.472Z,30.57
2022-10-11T22:28:41.612Z,30.67
2022-10-11T22:31:09.644Z,30.61
2022-10-11T22:33:36.869Z,30.50
2022-10-11T22:36:05.909Z,30.43
2022-10-11T22:38:33.039Z,30.44
2022-10-11T22:41:00.288Z,30.48
2022-10-11T22:43:27.438Z,30.45
2022-10-11T22:45:54.844Z,30.51
2022-10-11T22:48:22.300Z,30.45
2022-10-11T22:50:49.494Z,30.42
2022-10-11T22:53:16.641Z,30.34
2022-10-11T22:55:43.790Z,30.18
2022-10-11T22:58:11.151Z,30.15
2022-10-11T23:00:38.302Z,30.18
2022-10-11T23:03:07.341Z,30.20
2022-10-11T23:05:35.259Z,30.13
2022-10-11T23:11:24.786Z,30.12
2022-10-11T23:13:51.936Z,30.11
2022-10-11T23:16:19.088Z,30.06
2022-10-11T23:18:46.235Z,30.00
2022-10-11T23:21:13.592Z,30.02
2022-10-11T23:23:40.842Z,30.02
2022-10-11T23:26:10.663Z,29.99
2022-10-11T23:28:38.070Z,30.21
2022-10-11T23:31:16.719Z,30.21
2022-10-11T23:33:44.805Z,30.17
2022-10-11T23:36:20.036Z,30.12
2022-10-11T23:38:58.165Z,30.11
2022-10-11T23:41:27.135Z,30.10
2022-10-11T23:43:54.285Z,30.05
2022-10-11T23:46:21.639Z,30.06
2022-10-11T23:48:48.790Z,30.11
2022-10-11T23:51:15.940Z,30.12
2022-10-11T23:53:43.090Z,30.09
2022-10-11T23:56:10.427Z,30.07
2022-10-11T23:58:38.185Z,30.08
